sensor_id;sensor_type;location;lat;lon;timestamp;temperature;humidity
23335;DHT22;11839;48.598;8.870;2023-12-04T00:00:06;-3.30;99.90
23335;DHT22;11839;48.598;8.870;2023-12-04T00:02:33;-3.20;99.90
23335;DHT22;11839;48.598;8.870;2023-12-04T00:05:00;-3.10;99.90
23335;DHT22;11839;48.598;8.870;2023-12-04T00:07:26;-3.00;99.90
23335;DHT22;11839;48.598;8.870;2023-12-04T00:09:53;-3.10;99.90
23335;DHT22;11839;48.598;8.870;2023-12-04T00:12:20;-3.00;99.90
23335;DHT22;11839;48.598;8.870;2023-12-04T00:14:47;-3.10;99.90
23335;DHT22;11839;48.598;8.870;2023-12-04T00:17:15;-3.20;99.90
23335;DHT22;11839;48.598;8.870;2023-12-04T00:19:41;-3.40;99.90
23335;DHT22;11839;48.598;8.870;2023-12-04T00:22:08;-3.50;99.90
23335;DHT22;11839;48.598;8.870;2023-12-04T00:24:35;-3.60;99.90
23335;DHT22;11839;48.598;8.870;2023-12-04T00:27:02;-3.50;99.90
23335;DHT22;11839;48.598;8.870;2023-12-04T00:29:29;-3.40;99.90
23335;DHT22;11839;48.598;8.870;2023-12-04T00:31:55;-3.50;99.90
23335;DHT22;11839;48.598;8.870;2023-12-04T00:34:24;-3.60;99.90
23335;DHT22;11839;48.598;8.870;2023-12-04T00:36:51;-4.30;99.90
23335;DHT22;11839;48.598;8.870;2023-12-04T00:39:18;-4.30;99.90
23335;DHT22;11839;48.598;8.870;2023-12-04T00:41:44;-4.20;99.90
23335;DHT22;11839;48.598;8.870;2023-12-04T00:44:11;-4.10;99.90
23335;DHT22;11839;48.598;8.870;2023-12-04T00:46:38;-3.90;99.90
23335;DHT22;11839;48.598;8.870;2023-12-04T00:49:05;-3.90;99.90
23335;DHT22;11839;48.598;8.870;2023-12-04T00:51:38;-4.10;99.90
23335;DHT22;11839;48.598;8.870;2023-12-04T00:54:05;-4.50;99.90
23335;DHT22;11839;48.598;8.870;2023-12-04T00:56:32;-4.60;99.90
23335;DHT22;11839;48.598;8.870;2023-12-04T00:58:59;-4.60;99.90
23335;DHT22;11839;48.598;8.870;2023-12-04T01:01:26;-4.30;99.90
23335;DHT22;11839;48.598;8.870;2023-12-04T01:03:52;-3.90;99.90
23335;DHT22;11839;48.598;8.870;2023-12-04T01:06:22;-3.70;99.90
23335;DHT22;11839;48.598;8.870;2023-12-04T01:08:52;-3.60;99.90
23335;DHT22;11839;48.598;8.870;2023-12-04T01:11:19;-3.70;99.90
23335;DHT22;11839;48.598;8.870;2023-12-04T01:13:46;-3.80;99.90
23335;DHT22;11839;48.598;8.870;2023-12-04T01:16:13;-3.80;99.90
23335;DHT22;11839;48.598;8.870;2023-12-04T01:18:41;-3.70;99.90
23335;DHT22;11839;48.598;8.870;2023-12-04T01:21:08;-4.00;99.90
23335;DHT22;11839;48.598;8.870;2023-12-04T01:23:35;-4.10;99.90
23335;DHT22;11839;48.598;8.870;2023-12-04T01:26:04;-4.30;99.90
23335;DHT22;11839;48.598;8.870;2023-12-04T01:28:31;-4.30;99.90
23335;DHT22;11839;48.598;8.870;2023-12-04T01:30:57;-3.90;99.90
23335;DHT22;11839;48.598;8.870;2023-12-04T01:33:24;-3.50;99.90
23335;DHT22;11839;48.598;8.870;2023-12-04T01:35:51;-3.30;99.90
23335;DHT22;11839;48.598;8.870;2023-12-04T01:38:18;-3.50;99.90
23335;DHT22;11839;48.598;8.870;2023-12-04T01:40:44;-3.50;99.90
23335;DHT22;11839;48.598;8.870;2023-12-04T01:43:12;-3.30;99.90
23335;DHT22;11839;48.598;8.870;2023-12-04T01:45:40;-3.50;99.90
23335;DHT22;11839;48.598;8.870;2023-12-04T01:48:07;-3.30;99.90
23335;DHT22;11839;48.598;8.870;2023-12-04T01:50:35;-3.30;99.90
23335;DHT22;11839;48.598;8.870;2023-12-04T01:53:02;-3.50;99.90
23335;DHT22;11839;48.598;8.870;2023-12-04T01:55:30;-3.50;99.90
23335;DHT22;11839;48.598;8.870;2023-12-04T01:57:58;-3.40;99.90
23335;DHT22;11839;48.598;8.870;2023-12-04T02:00:27;-3.40;99.90
23335;DHT22;11839;48.598;8.870;2023-12-04T02:02:54;-3.30;99.90
23335;DHT22;11839;48.598;8.870;2023-12-04T02:05:21;-3.50;99.90
23335;DHT22;11839;48.598;8.870;2023-12-04T02:07:49;-3.80;99.90
23335;DHT22;11839;48.598;8.870;2023-12-04T02:10:16;-3.90;99.90
23335;DHT22;11839;48.598;8.870;2023-12-04T02:12:43;-3.60;99.90
23335;DHT22;11839;48.598;8.870;2023-12-04T02:15:10;-3.60;99.90
23335;DHT22;11839;48.598;8.870;2023-12-04T02:17:39;-3.60;99.90
23335;DHT22;11839;48.598;8.870;2023-12-04T02:20:07;-3.60;99.90
23335;DHT22;11839;48.598;8.870;2023-12-04T02:22:35;-3.60;99.90
23335;DHT22;11839;48.598;8.870;2023-12-04T02:25:04;-3.50;99.90
23335;DHT22;11839;48.598;8.870;2023-12-04T02:27:37;-3.50;99.90
23335;DHT22;11839;48.598;8.870;2023-12-04T02:30:06;-3.30;99.90
23335;DHT22;11839;48.598;8.870;2023-12-04T02:32:36;-3.40;99.90
23335;DHT22;11839;48.598;8.870;2023-12-04T02:35:05;-3.60;99.90
23335;DHT22;11839;48.598;8.870;2023-12-04T02:37:33;-3.50;99.90
23335;DHT22;11839;48.598;8.870;2023-12-04T02:40:00;-3.60;99.90
23335;DHT22;11839;48.598;8.870;2023-12-04T02:42:29;-3.50;99.90
23335;DHT22;11839;48.598;8.870;2023-12-04T02:44:56;-3.50;99.90
23335;DHT22;11839;48.598;8.870;2023-12-04T02:47:23;-3.50;99.90
23335;DHT22;11839;48.598;8.870;2023-12-04T02:49:49;-3.60;99.90
23335;DHT22;11839;48.598;8.870;2023-12-04T02:52:16;-3.50;99.90
23335;DHT22;11839;48.598;8.870;2023-12-04T02:54:43;-3.60;99.90
23335;DHT22;11839;48.598;8.870;2023-12-04T02:57:10;-3.80;99.90
23335;DHT22;11839;48.598;8.870;2023-12-04T02:59:38;-3.70;99.90
23335;DHT22;11839;48.598;8.870;2023-12-04T03:02:05;-3.50;99.90
23335;DHT22;11839;48.598;8.870;2023-12-04T03:04:32;-3.40;99.90
23335;DHT22;11839;48.598;8.870;2023-12-04T03:06:58;-3.40;99.90
23335;DHT22;11839;48.598;8.870;2023-12-04T03:09:25;-3.50;99.90
23335;DHT22;11839;48.598;8.870;2023-12-04T03:11:52;-3.00;99.90
23335;DHT22;11839;48.598;8.870;2023-12-04T03:14:19;-2.90;99.90
23335;DHT22;11839;48.598;8.870;2023-12-04T03:16:47;-2.90;99.90
23335;DHT22;11839;48.598;8.870;2023-12-04T03:19:14;-2.80;99.90
23335;DHT22;11839;48.598;8.870;2023-12-04T03:21:40;-2.60;99.90
23335;DHT22;11839;48.598;8.870;2023-12-04T03:24:07;-2.80;99.90
23335;DHT22;11839;48.598;8.870;2023-12-04T03:26:35;-3.00;99.90
23335;DHT22;11839;48.598;8.870;2023-12-04T03:29:01;-3.20;99.90
23335;DHT22;11839;48.598;8.870;2023-12-04T03:31:28;-3.10;99.90
23335;DHT22;11839;48.598;8.870;2023-12-04T03:33:58;-3.30;99.90
23335;DHT22;11839;48.598;8.870;2023-12-04T03:36:25;-4.10;99.90
23335;DHT22;11839;48.598;8.870;2023-12-04T03:38:51;-3.60;99.90
23335;DHT22;11839;48.598;8.870;2023-12-04T03:41:18;-3.30;99.90
23335;DHT22;11839;48.598;8.870;2023-12-04T03:43:45;-3.30;99.90
23335;DHT22;11839;48.598;8.870;2023-12-04T03:46:12;-3.20;99.90
23335;DHT22;11839;48.598;8.870;2023-12-04T03:48:38;-3.10;99.90
23335;DHT22;11839;48.598;8.870;2023-12-04T03:51:06;-2.90;99.90
23335;DHT22;11839;48.598;8.870;2023-12-04T03:53:33;-2.90;99.90
23335;DHT22;11839;48.598;8.870;2023-12-04T03:56:00;-2.80;99.90
23335;DHT22;11839;48.598;8.870;2023-12-04T03:58:27;-2.80;99.90
23335;DHT22;11839;48.598;8.870;2023-12-04T04:00:53;-3.10;99.90
23335;DHT22;11839;48.598;8.870;2023-12-04T04:03:20;-3.20;99.90
23335;DHT22;11839;48.598;8.870;2023-12-04T04:05:47;-3.40;99.90
23335;DHT22;11839;48.598;8.870;2023-12-04T04:08:15;-3.80;99.90
23335;DHT22;11839;48.598;8.870;2023-12-04T04:10:42;-3.90;99.90
23335;DHT22;11839;48.598;8.870;2023-12-04T04:13:09;-3.80;99.90
23335;DHT22;11839;48.598;8.870;2023-12-04T04:15:36;-3.20;99.90
23335;DHT22;11839;48.598;8.870;2023-12-04T04:18:03;-3.10;99.90
23335;DHT22;11839;48.598;8.870;2023-12-04T04:20:29;-3.20;99.90
23335;DHT22;11839;48.598;8.870;2023-12-04T04:22:56;-3.00;99.90
23335;DHT22;11839;48.598;8.870;2023-12-04T04:25:24;-3.00;99.90
23335;DHT22;11839;48.598;8.870;2023-12-04T04:27:51;-3.30;99.90
23335;DHT22;11839;48.598;8.870;2023-12-04T04:30:18;-3.70;99.90
23335;DHT22;11839;48.598;8.870;2023-12-04T04:32:44;-4.00;99.90
23335;DHT22;11839;48.598;8.870;2023-12-04T04:35:11;-3.50;99.90
23335;DHT22;11839;48.598;8.870;2023-12-04T04:37:38;-3.10;99.90
23335;DHT22;11839;48.598;8.870;2023-12-04T04:40:06;-2.90;99.90
23335;DHT22;11839;48.598;8.870;2023-12-04T04:42:34;-2.80;99.90
23335;DHT22;11839;48.598;8.870;2023-12-04T04:45:01;-2.90;99.90
23335;DHT22;11839;48.598;8.870;2023-12-04T04:47:28;-3.00;99.90
23335;DHT22;11839;48.598;8.870;2023-12-04T04:49:55;-3.10;99.90
23335;DHT22;11839;48.598;8.870;2023-12-04T04:52:21;-3.30;99.90
23335;DHT22;11839;48.598;8.870;2023-12-04T04:54:48;-3.20;99.90
23335;DHT22;11839;48.598;8.870;2023-12-04T04:57:15;-3.00;99.90
23335;DHT22;11839;48.598;8.870;2023-12-04T04:59:43;-2.70;99.90
23335;DHT22;11839;48.598;8.870;2023-12-04T05:02:10;-2.70;99.90
23335;DHT22;11839;48.598;8.870;2023-12-04T05:04:36;-2.50;99.90
23335;DHT22;11839;48.598;8.870;2023-12-04T05:07:03;-2.20;99.90
23335;DHT22;11839;48.598;8.870;2023-12-04T05:09:30;-2.20;99.90
23335;DHT22;11839;48.598;8.870;2023-12-04T05:11:57;-2.20;99.90
23335;DHT22;11839;48.598;8.870;2023-12-04T05:14:24;-2.20;99.90
23335;DHT22;11839;48.598;8.870;2023-12-04T05:16:53;-2.70;99.90
23335;DHT22;11839;48.598;8.870;2023-12-04T05:19:20;-2.90;99.90
23335;DHT22;11839;48.598;8.870;2023-12-04T05:21:47;-3.30;99.90
23335;DHT22;11839;48.598;8.870;2023-12-04T05:24:14;-3.40;99.90
23335;DHT22;11839;48.598;8.870;2023-12-04T05:26:40;-3.30;99.90
23335;DHT22;11839;48.598;8.870;2023-12-04T05:29:07;-3.40;99.90
23335;DHT22;11839;48.598;8.870;2023-12-04T05:31:34;-3.30;99.90
23335;DHT22;11839;48.598;8.870;2023-12-04T05:34:02;-3.20;99.90
23335;DHT22;11839;48.598;8.870;2023-12-04T05:36:29;-3.30;99.90
23335;DHT22;11839;48.598;8.870;2023-12-04T05:38:56;-3.20;99.90
23335;DHT22;11839;48.598;8.870;2023-12-04T05:41:22;-3.80;99.90
23335;DHT22;11839;48.598;8.870;2023-12-04T05:43:49;-4.00;99.90
23335;DHT22;11839;48.598;8.870;2023-12-04T05:46:16;-4.00;99.90
23335;DHT22;11839;48.598;8.870;2023-12-04T05:48:43;-4.20;99.90
23335;DHT22;11839;48.598;8.870;2023-12-04T05:51:11;-4.40;99.90
23335;DHT22;11839;48.598;8.870;2023-12-04T05:53:38;-4.20;99.90
23335;DHT22;11839;48.598;8.870;2023-12-04T05:56:06;-4.20;99.90
23335;DHT22;11839;48.598;8.870;2023-12-04T05:58:34;-4.40;99.90
23335;DHT22;11839;48.598;8.870;2023-12-04T06:01:01;-4.50;99.90
23335;DHT22;11839;48.598;8.870;2023-12-04T06:03:28;-4.50;99.90
23335;DHT22;11839;48.598;8.870;2023-12-04T06:05:54;-4.50;99.90
23335;DHT22;11839;48.598;8.870;2023-12-04T06:08:22;-4.50;99.90
23335;DHT22;11839;48.598;8.870;2023-12-04T06:10:49;-4.30;99.90
23335;DHT22;11839;48.598;8.870;2023-12-04T06:13:16;-4.00;99.90
23335;DHT22;11839;48.598;8.870;2023-12-04T06:15:43;-3.90;99.90
23335;DHT22;11839;48.598;8.870;2023-12-04T06:18:10;-3.70;99.90
23335;DHT22;11839;48.598;8.870;2023-12-04T06:20:37;-3.70;99.90
23335;DHT22;11839;48.598;8.870;2023-12-04T06:23:04;-4.00;99.90
23335;DHT22;11839;48.598;8.870;2023-12-04T06:25:33;-3.70;99.90
23335;DHT22;11839;48.598;8.870;2023-12-04T06:28:00;-3.40;99.90
23335;DHT22;11839;48.598;8.870;2023-12-04T06:30:27;-3.30;99.90
23335;DHT22;11839;48.598;8.870;2023-12-04T06:32:54;-3.00;99.90
23335;DHT22;11839;48.598;8.870;2023-12-04T06:35:22;-2.90;99.90
23335;DHT22;11839;48.598;8.870;2023-12-04T06:37:50;-2.50;99.90
23335;DHT22;11839;48.598;8.870;2023-12-04T06:40:20;-2.40;99.90
23335;DHT22;11839;48.598;8.870;2023-12-04T06:42:50;-2.60;99.90
23335;DHT22;11839;48.598;8.870;2023-12-04T06:45:17;-2.80;99.90
23335;DHT22;11839;48.598;8.870;2023-12-04T06:47:46;-2.80;99.90
23335;DHT22;11839;48.598;8.870;2023-12-04T06:50:16;-2.50;99.90
23335;DHT22;11839;48.598;8.870;2023-12-04T06:52:43;-2.40;99.90
23335;DHT22;11839;48.598;8.870;2023-12-04T06:55:10;-2.40;99.90
23335;DHT22;11839;48.598;8.870;2023-12-04T06:57:37;-2.10;99.90
23335;DHT22;11839;48.598;8.870;2023-12-04T07:00:06;-2.10;99.90
23335;DHT22;11839;48.598;8.870;2023-12-04T07:02:33;-2.30;99.90
23335;DHT22;11839;48.598;8.870;2023-12-04T07:05:00;-2.30;99.90
23335;DHT22;11839;48.598;8.870;2023-12-04T07:07:28;-2.50;99.90
23335;DHT22;11839;48.598;8.870;2023-12-04T07:09:55;-2.60;99.90
23335;DHT22;11839;48.598;8.870;2023-12-04T07:12:22;-3.00;99.90
23335;DHT22;11839;48.598;8.870;2023-12-04T07:14:48;-3.30;99.90
23335;DHT22;11839;48.598;8.870;2023-12-04T07:17:17;-3.40;99.90
23335;DHT22;11839;48.598;8.870;2023-12-04T07:19:43;-3.20;99.90
23335;DHT22;11839;48.598;8.870;2023-12-04T07:22:10;-3.00;99.90
23335;DHT22;11839;48.598;8.870;2023-12-04T07:24:37;-3.00;99.90
23335;DHT22;11839;48.598;8.870;2023-12-04T07:27:04;-3.50;99.90
23335;DHT22;11839;48.598;8.870;2023-12-04T07:29:31;-3.30;99.90
23335;DHT22;11839;48.598;8.870;2023-12-04T07:31:57;-3.00;99.90
23335;DHT22;11839;48.598;8.870;2023-12-04T07:34:26;-2.70;99.90
23335;DHT22;11839;48.598;8.870;2023-12-04T07:36:53;-2.60;99.90
23335;DHT22;11839;48.598;8.870;2023-12-04T07:39:20;-2.70;99.90
23335;DHT22;11839;48.598;8.870;2023-12-04T07:41:47;-2.30;99.90
23335;DHT22;11839;48.598;8.870;2023-12-04T07:44:14;-2.50;99.90
23335;DHT22;11839;48.598;8.870;2023-12-04T07:46:41;-2.60;99.90
23335;DHT22;11839;48.598;8.870;2023-12-04T07:49:08;-2.30;99.90
23335;DHT22;11839;48.598;8.870;2023-12-04T07:51:36;-2.20;99.90
23335;DHT22;11839;48.598;8.870;2023-12-04T07:54:04;-2.20;99.90
23335;DHT22;11839;48.598;8.870;2023-12-04T07:56:30;-2.10;99.90
23335;DHT22;11839;48.598;8.870;2023-12-04T07:58:57;-1.90;99.90
23335;DHT22;11839;48.598;8.870;2023-12-04T08:01:24;-1.90;99.90
23335;DHT22;11839;48.598;8.870;2023-12-04T08:03:51;-2.00;99.90
23335;DHT22;11839;48.598;8.870;2023-12-04T08:06:17;-2.30;99.90
23335;DHT22;11839;48.598;8.870;2023-12-04T08:08:46;-2.60;99.90
23335;DHT22;11839;48.598;8.870;2023-12-04T08:11:12;-2.60;99.90
23335;DHT22;11839;48.598;8.870;2023-12-04T08:13:39;-2.90;99.90
23335;DHT22;11839;48.598;8.870;2023-12-04T08:16:13;-2.50;99.90
23335;DHT22;11839;48.598;8.870;2023-12-04T08:18:40;-2.30;99.90
23335;DHT22;11839;48.598;8.870;2023-12-04T08:21:07;-2.20;99.90
23335;DHT22;11839;48.598;8.870;2023-12-04T08:23:34;-2.40;99.90
23335;DHT22;11839;48.598;8.870;2023-12-04T08:26:03;-2.70;99.90
23335;DHT22;11839;48.598;8.870;2023-12-04T08:28:30;-2.70;99.90
23335;DHT22;11839;48.598;8.870;2023-12-04T08:30:56;-2.80;99.90
23335;DHT22;11839;48.598;8.870;2023-12-04T08:33:23;-2.50;99.90
23335;DHT22;11839;48.598;8.870;2023-12-04T08:35:50;-2.60;99.90
23335;DHT22;11839;48.598;8.870;2023-12-04T08:38:17;-2.60;99.90
23335;DHT22;11839;48.598;8.870;2023-12-04T08:40:44;-2.50;99.90
23335;DHT22;11839;48.598;8.870;2023-12-04T08:43:12;-2.20;99.90
23335;DHT22;11839;48.598;8.870;2023-12-04T08:45:39;-2.20;99.90
23335;DHT22;11839;48.598;8.870;2023-12-04T08:48:06;-1.80;99.90
23335;DHT22;11839;48.598;8.870;2023-12-04T08:50:32;-1.80;99.90
23335;DHT22;11839;48.598;8.870;2023-12-04T08:52:59;-1.60;99.90
23335;DHT22;11839;48.598;8.870;2023-12-04T08:55:26;-1.60;99.90
23335;DHT22;11839;48.598;8.870;2023-12-04T08:57:53;-1.20;99.90
23335;DHT22;11839;48.598;8.870;2023-12-04T09:00:22;-1.20;99.90
23335;DHT22;11839;48.598;8.870;2023-12-04T09:02:48;-1.50;99.90
23335;DHT22;11839;48.598;8.870;2023-12-04T09:05:15;-1.30;99.90
23335;DHT22;11839;48.598;8.870;2023-12-04T09:07:42;-0.80;99.90
23335;DHT22;11839;48.598;8.870;2023-12-04T09:10:09;-1.00;99.90
23335;DHT22;11839;48.598;8.870;2023-12-04T09:12:36;-1.30;99.90
23335;DHT22;11839;48.598;8.870;2023-12-04T09:15:04;-1.30;99.90
23335;DHT22;11839;48.598;8.870;2023-12-04T09:17:32;-1.30;99.90
23335;DHT22;11839;48.598;8.870;2023-12-04T09:19:59;-1.00;99.90
23335;DHT22;11839;48.598;8.870;2023-12-04T09:22:26;-0.80;99.90
23335;DHT22;11839;48.598;8.870;2023-12-04T09:24:53;-0.40;99.90
23335;DHT22;11839;48.598;8.870;2023-12-04T09:27:20;-0.20;99.90
23335;DHT22;11839;48.598;8.870;2023-12-04T09:29:47;-0.10;99.90
23335;DHT22;11839;48.598;8.870;2023-12-04T09:32:13;0.10;99.90
23335;DHT22;11839;48.598;8.870;2023-12-04T09:34:42;0.10;99.90
23335;DHT22;11839;48.598;8.870;2023-12-04T09:37:08;0.30;99.90
23335;DHT22;11839;48.598;8.870;2023-12-04T09:39:35;0.20;99.90
23335;DHT22;11839;48.598;8.870;2023-12-04T09:42:02;0.20;99.90
23335;DHT22;11839;48.598;8.870;2023-12-04T09:44:30;0.20;99.90
23335;DHT22;11839;48.598;8.870;2023-12-04T09:46:57;0.00;99.90
23335;DHT22;11839;48.598;8.870;2023-12-04T09:49:26;0.00;99.90
23335;DHT22;11839;48.598;8.870;2023-12-04T09:51:57;0.20;99.90
23335;DHT22;11839;48.598;8.870;2023-12-04T09:54:24;0.40;99.90
23335;DHT22;11839;48.598;8.870;2023-12-04T09:56:52;0.40;99.90
23335;DHT22;11839;48.598;8.870;2023-12-04T09:59:21;0.40;99.90
23335;DHT22;11839;48.598;8.870;2023-12-04T10:01:50;0.70;99.90
23335;DHT22;11839;48.598;8.870;2023-12-04T10:04:21;0.50;99.90
23335;DHT22;11839;48.598;8.870;2023-12-04T10:06:50;0.50;99.90
23335;DHT22;11839;48.598;8.870;2023-12-04T10:09:19;0.40;99.90
23335;DHT22;11839;48.598;8.870;2023-12-04T10:11:48;1.00;99.90
23335;DHT22;11839;48.598;8.870;2023-12-04T10:14:16;1.20;99.90
23335;DHT22;11839;48.598;8.870;2023-12-04T10:16:43;1.20;99.90
23335;DHT22;11839;48.598;8.870;2023-12-04T10:19:18;1.60;99.90
23335;DHT22;11839;48.598;8.870;2023-12-04T10:21:46;1.80;99.90
23335;DHT22;11839;48.598;8.870;2023-12-04T10:24:30;2.20;99.90
23335;DHT22;11839;48.598;8.870;2023-12-04T10:26:58;2.80;99.90
23335;DHT22;11839;48.598;8.870;2023-12-04T10:29:28;1.90;99.90
23335;DHT22;11839;48.598;8.870;2023-12-04T10:31:57;1.30;99.90
23335;DHT22;11839;48.598;8.870;2023-12-04T10:34:25;0.80;99.90
23335;DHT22;11839;48.598;8.870;2023-12-04T10:36:52;0.70;99.90
23335;DHT22;11839;48.598;8.870;2023-12-04T10:39:20;0.70;99.90
23335;DHT22;11839;48.598;8.870;2023-12-04T10:41:59;0.90;99.90
23335;DHT22;11839;48.598;8.870;2023-12-04T10:44:30;1.30;99.90
23335;DHT22;11839;48.598;8.870;2023-12-04T10:46:59;1.70;99.90
23335;DHT22;11839;48.598;8.870;2023-12-04T10:49:26;1.80;99.90
23335;DHT22;11839;48.598;8.870;2023-12-04T10:51:55;2.20;99.90
23335;DHT22;11839;48.598;8.870;2023-12-04T10:54:25;2.40;99.90
23335;DHT22;11839;48.598;8.870;2023-12-04T10:56:58;2.80;99.90
23335;DHT22;11839;48.598;8.870;2023-12-04T10:59:28;2.60;99.90
23335;DHT22;11839;48.598;8.870;2023-12-04T11:01:59;2.30;99.90
23335;DHT22;11839;48.598;8.870;2023-12-04T11:04:29;1.70;99.90
23335;DHT22;11839;48.598;8.870;2023-12-04T11:06:59;1.60;99.90
23335;DHT22;11839;48.598;8.870;2023-12-04T11:09:29;1.90;99.90
23335;DHT22;11839;48.598;8.870;2023-12-04T11:12:03;2.30;99.90
23335;DHT22;11839;48.598;8.870;2023-12-04T11:14:42;2.00;99.90
23335;DHT22;11839;48.598;8.870;2023-12-04T11:17:13;1.90;99.90
23335;DHT22;11839;48.598;8.870;2023-12-04T11:19:49;2.20;99.90
23335;DHT22;11839;48.598;8.870;2023-12-04T11:22:17;2.30;99.90
23335;DHT22;11839;48.598;8.870;2023-12-04T11:24:46;2.20;99.90
23335;DHT22;11839;48.598;8.870;2023-12-04T11:27:15;2.50;99.90
23335;DHT22;11839;48.598;8.870;2023-12-04T11:29:43;2.70;99.90
23335;DHT22;11839;48.598;8.870;2023-12-04T11:32:14;2.80;99.90
23335;DHT22;11839;48.598;8.870;2023-12-04T11:34:47;2.80;99.90
23335;DHT22;11839;48.598;8.870;2023-12-04T11:37:14;2.50;99.90
23335;DHT22;11839;48.598;8.870;2023-12-04T11:39:41;2.70;99.90
23335;DHT22;11839;48.598;8.870;2023-12-04T11:42:09;3.00;99.90
23335;DHT22;11839;48.598;8.870;2023-12-04T11:44:41;2.40;99.90
23335;DHT22;11839;48.598;8.870;2023-12-04T11:47:08;2.60;99.90
23335;DHT22;11839;48.598;8.870;2023-12-04T11:49:35;3.00;99.90
23335;DHT22;11839;48.598;8.870;2023-12-04T11:52:03;3.40;99.90
23335;DHT22;11839;48.598;8.870;2023-12-04T11:54:57;3.60;99.90
23335;DHT22;11839;48.598;8.870;2023-12-04T11:57:25;3.30;99.90
23335;DHT22;11839;48.598;8.870;2023-12-04T12:00:08;2.80;99.90
23335;DHT22;11839;48.598;8.870;2023-12-04T12:02:35;3.10;99.90
23335;DHT22;11839;48.598;8.870;2023-12-04T12:05:01;3.00;99.90
23335;DHT22;11839;48.598;8.870;2023-12-04T12:07:28;3.50;99.90
23335;DHT22;11839;48.598;8.870;2023-12-04T12:09:55;3.60;99.90
23335;DHT22;11839;48.598;8.870;2023-12-04T12:12:23;3.60;99.90
23335;DHT22;11839;48.598;8.870;2023-12-04T12:14:51;3.60;99.90
23335;DHT22;11839;48.598;8.870;2023-12-04T12:17:19;3.30;99.90
23335;DHT22;11839;48.598;8.870;2023-12-04T12:19:46;3.00;99.90
23335;DHT22;11839;48.598;8.870;2023-12-04T12:22:13;2.50;99.90
23335;DHT22;11839;48.598;8.870;2023-12-04T12:24:39;2.70;99.90
23335;DHT22;11839;48.598;8.870;2023-12-04T12:27:06;2.80;99.90
23335;DHT22;11839;48.598;8.870;2023-12-04T12:29:33;2.90;99.90
23335;DHT22;11839;48.598;8.870;2023-12-04T12:31:59;2.60;99.90
23335;DHT22;11839;48.598;8.870;2023-12-04T12:34:28;2.60;99.90
23335;DHT22;11839;48.598;8.870;2023-12-04T12:36:54;2.60;99.90
23335;DHT22;11839;48.598;8.870;2023-12-04T12:39:21;2.80;99.90
23335;DHT22;11839;48.598;8.870;2023-12-04T12:41:48;3.00;99.90
23335;DHT22;11839;48.598;8.870;2023-12-04T12:44:16;2.80;99.90
23335;DHT22;11839;48.598;8.870;2023-12-04T12:46:47;3.10;99.90
23335;DHT22;11839;48.598;8.870;2023-12-04T12:49:14;3.30;99.90
23335;DHT22;11839;48.598;8.870;2023-12-04T12:51:42;3.20;99.90
23335;DHT22;11839;48.598;8.870;2023-12-04T12:54:09;3.40;99.90
23335;DHT22;11839;48.598;8.870;2023-12-04T12:56:35;3.30;99.90
23335;DHT22;11839;48.598;8.870;2023-12-04T12:59:02;3.20;99.90
23335;DHT22;11839;48.598;8.870;2023-12-04T13:01:30;3.00;99.90
23335;DHT22;11839;48.598;8.870;2023-12-04T13:03:57;2.70;99.90
23335;DHT22;11839;48.598;8.870;2023-12-04T13:06:24;2.80;99.90
23335;DHT22;11839;48.598;8.870;2023-12-04T13:08:52;2.40;99.90
23335;DHT22;11839;48.598;8.870;2023-12-04T13:11:19;2.30;99.90
23335;DHT22;11839;48.598;8.870;2023-12-04T13:13:46;2.20;99.90
23335;DHT22;11839;48.598;8.870;2023-12-04T13:16:13;2.00;99.90
23335;DHT22;11839;48.598;8.870;2023-12-04T13:18:39;1.50;99.90
23335;DHT22;11839;48.598;8.870;2023-12-04T13:21:07;1.40;99.90
23335;DHT22;11839;48.598;8.870;2023-12-04T13:23:36;1.80;99.90
23335;DHT22;11839;48.598;8.870;2023-12-04T13:26:04;2.20;99.90
23335;DHT22;11839;48.598;8.870;2023-12-04T13:28:31;2.30;99.90
23335;DHT22;11839;48.598;8.870;2023-12-04T13:30:57;2.60;99.90
23335;DHT22;11839;48.598;8.870;2023-12-04T13:33:24;2.50;99.90
23335;DHT22;11839;48.598;8.870;2023-12-04T13:35:51;2.60;99.90
23335;DHT22;11839;48.598;8.870;2023-12-04T13:38:18;3.10;99.90
23335;DHT22;11839;48.598;8.870;2023-12-04T13:40:45;3.10;99.90
23335;DHT22;11839;48.598;8.870;2023-12-04T13:43:26;2.70;99.90
23335;DHT22;11839;48.598;8.870;2023-12-04T13:46:10;2.60;99.90
23335;DHT22;11839;48.598;8.870;2023-12-04T13:48:37;2.70;99.90
23335;DHT22;11839;48.598;8.870;2023-12-04T13:51:06;3.00;99.90
23335;DHT22;11839;48.598;8.870;2023-12-04T13:53:33;3.20;99.90
23335;DHT22;11839;48.598;8.870;2023-12-04T13:56:01;3.00;99.90
23335;DHT22;11839;48.598;8.870;2023-12-04T13:58:51;2.80;99.90
23335;DHT22;11839;48.598;8.870;2023-12-04T14:01:22;3.20;99.90
23335;DHT22;11839;48.598;8.870;2023-12-04T14:03:51;3.30;99.90
23335;DHT22;11839;48.598;8.870;2023-12-04T14:06:17;3.20;99.90
23335;DHT22;11839;48.598;8.870;2023-12-04T14:08:45;3.30;99.90
23335;DHT22;11839;48.598;8.870;2023-12-04T14:11:11;3.20;99.90
23335;DHT22;11839;48.598;8.870;2023-12-04T14:13:37;3.20;99.90
23335;DHT22;11839;48.598;8.870;2023-12-04T14:16:07;3.30;99.90
23335;DHT22;11839;48.598;8.870;2023-12-04T14:18:33;3.00;99.90
23335;DHT22;11839;48.598;8.870;2023-12-04T14:21:00;3.10;99.90
23335;DHT22;11839;48.598;8.870;2023-12-04T14:23:27;3.50;99.90
23335;DHT22;11839;48.598;8.870;2023-12-04T14:25:54;3.40;99.90
23335;DHT22;11839;48.598;8.870;2023-12-04T14:28:20;2.90;99.90
23335;DHT22;11839;48.598;8.870;2023-12-04T14:30:47;2.40;99.90
23335;DHT22;11839;48.598;8.870;2023-12-04T14:33:15;1.90;99.90
23335;DHT22;11839;48.598;8.870;2023-12-04T14:35:42;1.80;99.90
23335;DHT22;11839;48.598;8.870;2023-12-04T14:38:10;1.70;99.90
23335;DHT22;11839;48.598;8.870;2023-12-04T14:40:36;2.00;99.90
23335;DHT22;11839;48.598;8.870;2023-12-04T14:43:03;2.30;99.90
23335;DHT22;11839;48.598;8.870;2023-12-04T14:45:30;2.30;99.90
23335;DHT22;11839;48.598;8.870;2023-12-04T14:47:57;2.50;99.90
23335;DHT22;11839;48.598;8.870;2023-12-04T14:50:25;2.60;99.90
23335;DHT22;11839;48.598;8.870;2023-12-04T14:52:52;2.80;99.90
23335;DHT22;11839;48.598;8.870;2023-12-04T14:55:21;2.80;99.90
23335;DHT22;11839;48.598;8.870;2023-12-04T14:58:10;2.40;99.90
23335;DHT22;11839;48.598;8.870;2023-12-04T15:01:10;2.20;99.90
23335;DHT22;11839;48.598;8.870;2023-12-04T15:04:21;2.50;99.90
23335;DHT22;11839;48.598;8.870;2023-12-04T15:07:15;2.40;99.90
23335;DHT22;11839;48.598;8.870;2023-12-04T15:10:09;2.40;99.90
23335;DHT22;11839;48.598;8.870;2023-12-04T15:13:24;2.10;99.90
23335;DHT22;11839;48.598;8.870;2023-12-04T15:16:08;2.20;99.90
23335;DHT22;11839;48.598;8.870;2023-12-04T15:18:52;2.10;99.90
23335;DHT22;11839;48.598;8.870;2023-12-04T15:21:37;2.30;99.90
23335;DHT22;11839;48.598;8.870;2023-12-04T15:24:06;2.40;99.90
23335;DHT22;11839;48.598;8.870;2023-12-04T15:26:33;2.10;99.90
23335;DHT22;11839;48.598;8.870;2023-12-04T15:28:59;2.10;99.90
23335;DHT22;11839;48.598;8.870;2023-12-04T15:31:25;2.30;99.90
23335;DHT22;11839;48.598;8.870;2023-12-04T15:33:52;2.20;99.90
23335;DHT22;11839;48.598;8.870;2023-12-04T15:36:18;2.10;99.90
23335;DHT22;11839;48.598;8.870;2023-12-04T15:38:47;1.70;99.90
23335;DHT22;11839;48.598;8.870;2023-12-04T15:41:14;1.80;99.90
23335;DHT22;11839;48.598;8.870;2023-12-04T15:43:42;2.00;99.90